Time,TemperatureF,DewpointF,PressureIn,WindDirection,WindDirectionDegrees,WindSpeedMPH,WindSpeedGustMPH,Humidity,HourlyPrecipIn,Conditions,Clouds,dailyrainin,SoftwareType,DateUTC
2013-10-12 00:24:00,52.0,51.0,30.06,NE,35,1.0,6.0,98,0.00,,,0.35,,2013-10-12 04:24:00,
2013-10-12 00:33:00,52.0,51.0,30.06,NE,35,1.0,6.0,98,0.00,,,0.35,,2013-10-12 04:33:00,
2013-10-12 00:54:00,52.0,51.0,30.06,NNE,21,2.0,9.0,98,0.00,,,0.35,,2013-10-12 04:54:00,
2013-10-12 01:23:00,52.0,51.0,30.06,NE,45,2.0,7.0,98,0.00,,,0.35,,2013-10-12 05:23:00,
2013-10-12 01:34:00,52.0,51.0,30.06,NE,45,2.0,7.0,98,0.00,,,0.35,,2013-10-12 05:34:00,
2013-10-12 01:52:00,53.0,52.0,30.06,NNE,22,1.0,7.0,98,0.00,,,0.35,,2013-10-12 05:52:00,
2013-10-12 02:02:00,53.0,52.0,30.06,NNE,22,1.0,7.0,98,0.00,,,0.35,,2013-10-12 06:02:00,
2013-10-12 02:12:00,53.0,52.0,30.06,NNE,22,1.0,7.0,98,0.00,,,0.35,,2013-10-12 06:12:00,
2013-10-12 02:22:00,53.0,52.0,30.06,NNE,22,1.0,7.0,98,0.00,,,0.35,,2013-10-12 06:22:00,
2013-10-12 02:32:00,53.0,52.0,30.06,NNE,22,1.0,7.0,98,0.00,,,0.35,,2013-10-12 06:32:00,
2013-10-12 03:52:00,54.0,54.0,30.07,ENE,58,1.0,5.0,99,0.00,,,0.33,,2013-10-12 07:52:00,
2013-10-12 04:23:00,54.0,54.0,30.08,NE,54,1.0,6.0,99,0.01,,,0.34,,2013-10-12 08:23:00,
2013-10-12 04:32:00,54.0,54.0,30.08,NE,54,1.0,6.0,99,0.01,,,0.34,,2013-10-12 08:32:00,
2013-10-12 04:52:00,54.0,54.0,30.08,NE,54,1.0,6.0,99,0.01,,,0.34,,2013-10-12 08:52:00,
2013-10-12 05:22:00,55.0,55.0,30.09,East,80,4.0,11.0,99,0.01,,,0.34,,2013-10-12 09:22:00,
2013-10-12 05:33:00,55.0,55.0,30.09,East,80,4.0,11.0,99,0.01,,,0.34,,2013-10-12 09:33:00,
2013-10-12 05:53:00,55.0,55.0,30.09,North,0,0.0,6.0,99,0.00,,,0.34,,2013-10-12 09:53:00,
2013-10-12 06:12:00,55.0,55.0,30.10,ENE,63,2.0,10.0,99,0.00,,,0.34,,2013-10-12 10:12:00,
2013-10-12 06:23:00,55.0,55.0,30.10,ENE,63,2.0,10.0,99,0.00,,,0.34,,2013-10-12 10:23:00,
2013-10-12 06:32:00,55.0,55.0,30.10,ENE,63,2.0,10.0,99,0.00,,,0.34,,2013-10-12 10:32:00,
2013-10-12 07:12:00,55.0,55.0,30.11,ENE,75,2.0,11.0,99,0.00,,,0.34,,2013-10-12 11:12:00,
2013-10-12 07:22:00,55.0,55.0,30.11,ENE,75,2.0,11.0,99,0.00,,,0.34,,2013-10-12 11:22:00,
2013-10-12 07:52:00,56.0,56.0,30.12,East,86,3.0,9.0,99,0.00,,,0.34,,2013-10-12 11:52:00,
2013-10-12 08:01:00,56.0,56.0,30.12,East,86,3.0,9.0,99,0.00,,,0.34,,2013-10-12 12:01:00,
2013-10-12 08:22:00,55.0,55.0,30.13,North,0,0.0,3.0,99,0.00,,,0.34,,2013-10-12 12:22:00,
2013-10-12 08:32:00,55.0,55.0,30.13,North,0,0.0,3.0,99,0.00,,,0.34,,2013-10-12 12:32:00,
2013-10-12 08:52:00,55.0,55.0,30.13,North,0,0.0,3.0,99,0.00,,,0.34,,2013-10-12 12:52:00,
2013-10-12 09:22:00,56.0,56.0,30.14,NE,42,2.0,8.0,99,0.00,,,0.34,,2013-10-12 13:22:00,
2013-10-12 09:52:00,56.0,56.0,30.15,ENE,62,2.0,7.0,99,0.01,,,0.35,,2013-10-12 13:52:00,
2013-10-12 10:21:00,57.0,57.0,30.15,East,80,2.0,9.0,99,0.00,,,0.34,,2013-10-12 14:21:00,
2013-10-12 10:32:00,57.0,57.0,30.15,East,80,2.0,9.0,99,0.00,,,0.34,,2013-10-12 14:32:00,
2013-10-12 10:52:00,57.0,57.0,30.15,East,80,2.0,9.0,99,0.00,,,0.34,,2013-10-12 14:52:00,
2013-10-12 11:11:00,57.0,56.0,30.16,East,94,2.0,6.0,98,0.00,,,0.27,,2013-10-12 15:11:00,
2013-10-12 11:22:00,57.0,56.0,30.16,East,94,2.0,6.0,98,0.00,,,0.27,,2013-10-12 15:22:00,
2013-10-12 11:54:00,57.0,56.0,30.16,NNE,24,1.0,7.0,96,0.00,,,0.18,,2013-10-12 15:54:00,
2013-10-12 12:13:00,58.0,57.0,30.16,NE,54,1.0,5.0,97,0.00,,,0.15,,2013-10-12 16:13:00,
2013-10-12 12:23:00,58.0,57.0,30.16,NE,54,1.0,5.0,97,0.00,,,0.15,,2013-10-12 16:23:00,
2013-10-12 12:43:00,57.0,56.0,30.16,East,81,2.0,4.0,96,0.00,,,0.13,,2013-10-12 16:43:00,
2013-10-12 12:53:00,58.0,57.0,30.16,East,87,3.0,7.0,95,0.00,,,0.13,,2013-10-12 16:53:00,
2013-10-12 13:03:00,58.0,57.0,30.16,East,87,3.0,7.0,95,0.00,,,0.13,,2013-10-12 17:03:00,
2013-10-12 13:23:00,58.0,56.0,30.15,East,84,4.0,8.0,94,0.00,,,0.13,,2013-10-12 17:23:00,
2013-10-12 13:53:00,59.0,57.0,30.14,ENE,71,2.0,6.0,94,0.00,,,0.13,,2013-10-12 17:53:00,
2013-10-12 14:22:00,60.0,58.0,30.14,East,88,6.0,14.0,93,0.00,,,0.12,,2013-10-12 18:22:00,
2013-10-12 14:52:00,60.0,58.0,30.13,ENE,72,5.0,10.0,92,0.00,,,0.11,,2013-10-12 18:52:00,
2013-10-12 15:01:00,60.0,58.0,30.13,ENE,72,5.0,10.0,92,0.00,,,0.11,,2013-10-12 19:01:00,
2013-10-12 15:22:00,61.0,58.0,30.14,East,82,4.0,9.0,91,0.00,,,0.11,,2013-10-12 19:22:00,
2013-10-12 15:52:00,60.0,59.0,30.14,ESE,102,4.0,7.0,95,0.00,,,0.11,,2013-10-12 19:52:00,
2013-10-12 16:22:00,60.0,59.0,30.14,East,96,2.0,7.0,96,0.00,,,0.11,,2013-10-12 20:22:00,
2013-10-12 16:32:00,60.0,59.0,30.14,East,96,2.0,7.0,96,0.00,,,0.11,,2013-10-12 20:32:00,
2013-10-12 16:40:00,60.0,58.0,30.14,East,86,2.0,10.0,94,0.00,,,0.11,,2013-10-12 20:40:00,
2013-10-12 16:52:00,60.0,59.0,30.14,East,96,2.0,7.0,96,0.00,,,0.11,,2013-10-12 20:52:00,
2013-10-12 17:11:00,60.0,58.0,30.14,East,86,2.0,10.0,94,0.00,,,0.11,,2013-10-12 21:11:00,
2013-10-12 17:22:00,60.0,58.0,30.14,East,86,2.0,10.0,94,0.00,,,0.11,,2013-10-12 21:22:00,
2013-10-12 17:35:00,60.0,58.0,30.14,East,86,2.0,10.0,94,0.00,,,0.11,,2013-10-12 21:35:00,
2013-10-12 17:54:00,60.0,58.0,30.15,East,83,1.0,6.0,93,0.00,,,0.09,,2013-10-12 21:54:00,
2013-10-12 18:24:00,60.0,58.0,30.15,North,0,0.0,5.0,93,0.00,,,0.07,,2013-10-12 22:24:00,
2013-10-12 18:54:00,60.0,58.0,30.16,East,80,1.0,4.0,92,0.00,,,0.07,,2013-10-12 22:54:00,
2013-10-12 19:22:00,60.0,58.0,30.16,East,89,4.0,7.0,93,0.00,,,0.04,,2013-10-12 23:22:00,
2013-10-12 19:33:00,60.0,58.0,30.16,East,89,4.0,7.0,93,0.00,,,0.04,,2013-10-12 23:33:00,
2013-10-12 19:52:00,59.0,57.0,30.16,East,84,4.0,8.0,92,0.00,,,0.04,,2013-10-12 23:52:00,
2013-10-12 20:12:00,59.0,56.0,30.17,East,91,4.0,9.0,91,0.00,,,0.04,,2013-10-13 00:12:00,
2013-10-12 20:22:00,59.0,56.0,30.17,East,91,4.0,9.0,91,0.00,,,0.04,,2013-10-13 00:22:00,
2013-10-12 20:52:00,59.0,55.0,30.18,East,85,4.0,8.0,86,0.00,,,0.03,,2013-10-13 00:52:00,
2013-10-12 21:22:00,58.0,52.0,30.19,East,93,4.0,9.0,81,0.00,,,0.03,,2013-10-13 01:22:00,
2013-10-12 21:32:00,58.0,52.0,30.19,East,93,4.0,9.0,81,0.00,,,0.03,,2013-10-13 01:32:00,
2013-10-12 21:42:00,58.0,52.0,30.19,East,93,4.0,9.0,81,0.00,,,0.03,,2013-10-13 01:42:00,
2013-10-12 21:52:00,58.0,52.0,30.19,East,93,4.0,9.0,81,0.00,,,0.03,,2013-10-13 01:52:00,
2013-10-12 22:22:00,53.0,51.0,30.21,East,91,2.0,7.0,94,0.00,,,0.03,,2013-10-13 02:22:00,
2013-10-12 22:45:00,54.0,52.0,30.22,North,0,0.0,2.0,94,0.00,,,0.02,,2013-10-13 02:45:00,
2013-10-12 22:52:00,53.0,52.0,30.21,East,86,1.0,6.0,95,0.00,,,0.03,,2013-10-13 02:52:00,
2013-10-12 23:12:00,54.0,52.0,30.22,North,0,0.0,2.0,94,0.00,,,0.02,,2013-10-13 03:12:00,
2013-10-12 23:22:00,54.0,52.0,30.22,North,0,0.0,2.0,94,0.00,,,0.02,,2013-10-13 03:22:00,
2013-10-12 23:34:00,54.0,52.0,30.22,North,0,0.0,2.0,94,0.00,,,0.02,,2013-10-13 03:34:00,
2013-10-12 23:53:00,54.0,53.0,30.22,North,0,0.0,0.0,95,0.00,,,0.02,,2013-10-13 03:53:00,